createdAt,value
2019-05-22T00:00:51.983Z,11.60
2019-05-22T00:03:25.613Z,11.70
2019-05-22T00:05:58.725Z,11.60
2019-05-22T00:08:29.225Z,11.60
2019-05-22T00:11:01.799Z,11.60
2019-05-22T00:13:32.367Z,11.50
2019-05-22T00:16:04.008Z,11.60
2019-05-22T00:18:35.384Z,11.60
2019-05-22T00:21:05.699Z,11.50
2019-05-22T00:23:37.460Z,11.50
2019-05-22T00:26:08.194Z,11.60
2019-05-22T00:28:38.956Z,11.60
2019-05-22T00:31:09.517Z,11.50
2019-05-22T00:33:40.250Z,11.50
2019-05-22T00:36:13.264Z,11.50
2019-05-22T00:38:44.509Z,11.50
2019-05-22T00:41:18.976Z,11.60
2019-05-22T00:43:51.124Z,11.60
2019-05-22T00:46:21.555Z,11.60
2019-05-22T00:48:52.673Z,11.60
2019-05-22T00:51:40.943Z,11.60
2019-05-22T00:54:39.015Z,11.60
2019-05-22T00:57:30.011Z,11.60
2019-05-22T01:00:19.095Z,11.60
2019-05-22T01:02:50.327Z,11.50
2019-05-22T01:05:22.741Z,11.50
2019-05-22T01:07:56.847Z,11.60
2019-05-22T01:10:30.339Z,11.50
2019-05-22T01:13:03.391Z,11.50
2019-05-22T01:15:35.239Z,11.50
2019-05-22T01:18:08.373Z,11.50
2019-05-22T01:20:41.352Z,11.40
2019-05-22T01:23:15.850Z,11.40
2019-05-22T01:25:48.164Z,11.30
2019-05-22T01:28:19.792Z,11.30
2019-05-22T01:31:00.621Z,11.20
2019-05-22T01:33:40.871Z,11.30
2019-05-22T01:36:28.820Z,11.30
2019-05-22T01:39:10.390Z,11.30
2019-05-22T01:41:42.171Z,11.20
2019-05-22T01:44:12.055Z,11.10
2019-05-22T01:46:43.494Z,11.10
2019-05-22T01:49:15.108Z,11.20
2019-05-22T01:51:46.449Z,11.20
2019-05-22T01:54:18.356Z,11.30
2019-05-22T01:56:48.765Z,11.20
2019-05-22T01:59:19.517Z,11.20
2019-05-22T02:01:49.821Z,11.20
2019-05-22T02:04:19.886Z,11.20
2019-05-22T02:06:51.200Z,11.20
2019-05-22T02:09:30.988Z,11.20
2019-05-22T02:12:20.245Z,11.10
2019-05-22T02:14:53.112Z,11.10
2019-05-22T02:17:29.402Z,11.10
2019-05-22T02:20:00.650Z,11.10
2019-05-22T02:22:30.495Z,11.20
2019-05-22T02:25:01.703Z,11.20
2019-05-22T02:27:31.775Z,11.10
2019-05-22T02:30:05.194Z,11.10
2019-05-22T02:32:35.882Z,11.10
2019-05-22T02:35:08.537Z,11.00
2019-05-22T02:37:39.316Z,11.00
2019-05-22T02:40:15.404Z,11.10
2019-05-22T02:42:46.771Z,11.00
2019-05-22T02:45:17.466Z,11.00
2019-05-22T02:47:48.991Z,11.10
2019-05-22T02:50:20.211Z,11.10
2019-05-22T02:52:50.409Z,11.00
2019-05-22T02:55:21.217Z,11.00
2019-05-22T02:57:51.949Z,11.10
2019-05-22T03:00:24.961Z,11.10
2019-05-22T03:02:55.768Z,11.10
2019-05-22T03:05:26.782Z,11.10
2019-05-22T03:07:57.486Z,11.10
2019-05-22T03:10:27.361Z,11.10
2019-05-22T03:12:58.406Z,11.10
2019-05-22T03:15:28.663Z,11.10
2019-05-22T03:18:05.066Z,11.10
2019-05-22T03:20:35.980Z,11.10
2019-05-22T03:23:34.516Z,11.10
2019-05-22T03:26:05.648Z,11.00
2019-05-22T03:28:35.717Z,11.00
2019-05-22T03:31:06.857Z,10.90
2019-05-22T03:33:37.144Z,10.90
2019-05-22T03:36:13.977Z,10.90
2019-05-22T03:38:44.194Z,10.90
2019-05-22T03:41:15.020Z,10.90
2019-05-22T03:43:48.781Z,11.00
2019-05-22T03:46:35.958Z,11.00
2019-05-22T03:49:08.005Z,11.00
2019-05-22T03:51:38.732Z,11.00
2019-05-22T03:54:09.327Z,10.90
2019-05-22T03:56:42.553Z,11.00
2019-05-22T03:59:13.086Z,11.00
2019-05-22T04:01:45.822Z,11.00
2019-05-22T04:04:34.347Z,10.90
2019-05-22T04:07:06.221Z,10.90
2019-05-22T04:09:37.745Z,10.90
2019-05-22T04:12:08.014Z,10.90
2019-05-22T04:14:40.214Z,10.90
2019-05-22T04:17:13.393Z,10.90
2019-05-22T04:19:50.551Z,10.80
2019-05-22T04:22:17.275Z,10.80
2019-05-22T04:24:49.102Z,10.90
2019-05-22T04:27:20.380Z,10.90
2019-05-22T04:29:51.229Z,10.90
2019-05-22T04:32:37.616Z,10.90
2019-05-22T04:35:12.030Z,10.90
2019-05-22T04:37:43.063Z,11.00
2019-05-22T04:40:49.157Z,11.00
2019-05-22T04:43:21.356Z,10.80
2019-05-22T04:45:53.788Z,10.90
2019-05-22T04:48:25.266Z,10.90
2019-05-22T04:50:56.420Z,10.90
2019-05-22T04:53:27.798Z,10.80
2019-05-22T04:55:57.799Z,10.90
2019-05-22T04:58:29.780Z,11.00
2019-05-22T05:00:59.786Z,11.00
2019-05-22T05:03:30.143Z,11.00
2019-05-22T05:06:00.105Z,11.10
2019-05-22T05:08:30.595Z,11.10
2019-05-22T05:11:03.048Z,11.10
2019-05-22T05:13:33.166Z,11.10
2019-05-22T05:16:03.282Z,11.20
2019-05-22T05:18:33.044Z,11.20
2019-05-22T05:21:03.033Z,11.20
2019-05-22T05:23:32.951Z,11.10
2019-05-22T05:26:02.890Z,11.10
2019-05-22T05:28:32.810Z,11.20
2019-05-22T05:31:02.612Z,11.20
2019-05-22T05:33:37.750Z,11.20
2019-05-22T05:36:08.374Z,11.30
2019-05-22T05:38:39.560Z,11.30
2019-05-22T05:41:09.873Z,11.30
2019-05-22T05:43:40.455Z,11.40
2019-05-22T05:46:11.165Z,11.40
2019-05-22T05:48:42.192Z,11.50
2019-05-22T05:51:36.188Z,11.40
2019-05-22T05:54:14.123Z,11.60
2019-05-22T05:56:46.496Z,11.50
2019-05-22T05:59:24.934Z,11.60
2019-05-22T06:01:58.891Z,11.70
2019-05-22T06:04:35.001Z,11.70
2019-05-22T06:07:24.362Z,11.60
2019-05-22T06:10:42.737Z,11.70
2019-05-22T06:13:12.855Z,11.70
2019-05-22T06:16:29.309Z,11.90
2019-05-22T06:18:59.861Z,11.80
2019-05-22T06:21:31.364Z,11.80
2019-05-22T06:24:29.994Z,11.90
2019-05-22T06:27:28.037Z,11.90
2019-05-22T06:30:07.413Z,11.90
2019-05-22T06:33:17.770Z,12.20
2019-05-22T06:35:49.835Z,12.00
2019-05-22T06:38:57.863Z,12.00
2019-05-22T06:41:31.583Z,12.30
2019-05-22T06:44:43.354Z,12.40
2019-05-22T06:47:26.681Z,12.60
2019-05-22T06:49:58.867Z,12.70
2019-05-22T06:52:29.141Z,12.80
2019-05-22T06:54:59.597Z,12.70
2019-05-22T06:57:34.426Z,12.70
2019-05-22T07:00:14.669Z,12.70
2019-05-22T07:02:43.535Z,12.80
2019-05-22T07:05:14.954Z,12.80
2019-05-22T07:07:46.427Z,13.00
2019-05-22T07:10:16.912Z,13.10
2019-05-22T07:12:50.285Z,13.00
2019-05-22T07:15:46.424Z,13.00
2019-05-22T07:18:20.119Z,12.90
2019-05-22T07:20:50.988Z,13.00
2019-05-22T07:23:25.454Z,13.30
2019-05-22T07:25:56.738Z,13.40
2019-05-22T07:28:26.686Z,13.30
2019-05-22T07:30:57.498Z,13.50
2019-05-22T07:33:28.382Z,13.30
2019-05-22T07:36:09.963Z,13.30
2019-05-22T07:38:30.536Z,13.20
2019-05-22T07:41:00.984Z,13.50
2019-05-22T07:43:30.939Z,13.80
2019-05-22T07:46:01.332Z,13.70
2019-05-22T07:48:32.213Z,13.70
2019-05-22T07:51:03.502Z,13.90
2019-05-22T07:53:33.499Z,14.20
2019-05-22T07:56:06.079Z,14.30
2019-05-22T07:58:36.397Z,14.30
2019-05-22T08:01:07.999Z,14.60
2019-05-22T08:03:38.215Z,15.00
2019-05-22T08:06:09.114Z,15.70
2019-05-22T08:08:42.030Z,16.20
2019-05-22T08:11:13.518Z,16.40
2019-05-22T08:13:45.427Z,16.80
2019-05-22T08:16:16.271Z,16.50
2019-05-22T08:18:46.027Z,16.70
2019-05-22T08:21:15.149Z,17.70
2019-05-22T08:23:44.093Z,18.20
2019-05-22T08:26:14.795Z,18.10
2019-05-22T08:28:43.535Z,18.30
2019-05-22T08:31:13.323Z,19.40
2019-05-22T08:33:42.587Z,19.30
2019-05-22T08:36:11.987Z,19.50
2019-05-22T08:38:41.814Z,19.30
2019-05-22T08:41:10.901Z,20.40
2019-05-22T08:44:11.425Z,20.70
2019-05-22T08:46:13.577Z,20.20
2019-05-22T08:50:17.755Z,19.80
2019-05-22T08:52:47.541Z,19.30
2019-05-22T08:55:16.235Z,19.40
2019-05-22T08:57:45.130Z,18.80
2019-05-22T09:00:14.363Z,18.80
2019-05-22T09:02:43.084Z,18.90
2019-05-22T09:05:11.418Z,18.60
2019-05-22T09:07:39.903Z,18.80
2019-05-22T09:10:08.391Z,19.90
2019-05-22T09:12:37.256Z,21.90
2019-05-22T09:15:05.683Z,22.80
2019-05-22T09:17:33.993Z,25.50
2019-05-22T09:20:04.593Z,25.80
2019-05-22T09:22:40.557Z,25.10
2019-05-22T09:25:07.051Z,21.60
2019-05-22T09:27:36.954Z,22.00
2019-05-22T09:30:06.053Z,20.60
2019-05-22T09:32:34.315Z,21.40
2019-05-22T09:35:03.032Z,22.80
2019-05-22T09:37:31.639Z,22.30
2019-05-22T09:40:00.176Z,22.30
2019-05-22T09:42:28.739Z,22.40
2019-05-22T09:44:57.081Z,22.90
2019-05-22T09:47:26.165Z,23.10
2019-05-22T09:49:54.734Z,22.40
2019-05-22T09:52:23.633Z,22.30
2019-05-22T09:54:52.351Z,21.90
2019-05-22T09:57:20.656Z,21.60
2019-05-22T09:59:49.062Z,20.70
2019-05-22T10:02:18.427Z,20.50
2019-05-22T10:04:47.051Z,19.80
2019-05-22T10:07:15.316Z,19.20
2019-05-22T10:09:44.130Z,19.70
2019-05-22T10:12:12.618Z,20.50
2019-05-22T10:14:42.514Z,20.40
2019-05-22T10:17:12.966Z,19.90
2019-05-22T10:19:41.567Z,20.50
2019-05-22T10:22:11.824Z,20.60
2019-05-22T10:24:42.192Z,20.20
2019-05-22T10:27:13.731Z,20.10
2019-05-22T10:29:43.344Z,19.60
2019-05-22T10:32:14.134Z,19.80
2019-05-22T10:34:43.840Z,20.10
2019-05-22T10:37:13.418Z,20.30
2019-05-22T10:39:42.698Z,20.60
2019-05-22T10:42:12.680Z,20.80
2019-05-22T10:44:42.091Z,20.10
2019-05-22T10:47:11.776Z,20.00
2019-05-22T10:49:40.494Z,20.20
2019-05-22T10:52:10.480Z,19.80
2019-05-22T10:54:39.749Z,20.10
2019-05-22T10:57:10.660Z,19.90
2019-05-22T10:59:40.005Z,20.20
2019-05-22T11:02:09.595Z,20.80
2019-05-22T11:04:39.831Z,19.90
2019-05-22T11:07:09.895Z,19.90
2019-05-22T11:09:40.382Z,20.30
2019-05-22T11:12:09.821Z,20.30
2019-05-22T11:14:40.301Z,19.80
2019-05-22T11:17:10.226Z,19.60
2019-05-22T11:19:39.641Z,20.00
2019-05-22T11:22:09.757Z,20.00
2019-05-22T11:24:39.312Z,19.80
2019-05-22T11:27:08.600Z,19.60
2019-05-22T11:29:38.407Z,19.50
2019-05-22T11:32:08.782Z,19.60
2019-05-22T11:34:38.455Z,20.40
2019-05-22T11:37:08.991Z,20.40
2019-05-22T11:39:41.082Z,19.80
2019-05-22T11:42:10.640Z,19.90
2019-05-22T11:44:41.138Z,19.50
2019-05-22T11:47:12.064Z,19.80
2019-05-22T11:49:41.684Z,20.30
2019-05-22T11:52:12.192Z,20.80
2019-05-22T11:54:42.532Z,20.60
2019-05-22T11:57:12.543Z,20.50
2019-05-22T11:59:41.927Z,20.80
2019-05-22T12:02:13.539Z,20.10
2019-05-22T12:04:47.773Z,20.20
2019-05-22T12:07:15.167Z,20.70
2019-05-22T12:09:45.651Z,21.10
2019-05-22T12:12:15.481Z,20.80
2019-05-22T12:14:45.369Z,20.10
2019-05-22T12:17:14.859Z,20.20
2019-05-22T12:19:44.241Z,20.40
2019-05-22T12:22:13.650Z,20.50
2019-05-22T12:24:43.321Z,20.60
2019-05-22T12:27:13.471Z,20.60
2019-05-22T12:29:43.593Z,20.40
2019-05-22T12:32:14.046Z,20.30
2019-05-22T12:34:43.454Z,20.60
2019-05-22T12:37:13.593Z,21.20
2019-05-22T12:39:43.725Z,20.80
2019-05-22T12:42:14.149Z,20.30
2019-05-22T12:44:44.053Z,20.80
2019-05-22T12:47:14.152Z,20.80
2019-05-22T12:49:43.738Z,21.50
2019-05-22T12:52:13.697Z,21.80
2019-05-22T12:54:48.384Z,21.60
2019-05-22T12:57:14.510Z,21.50
2019-05-22T12:59:45.670Z,21.20
2019-05-22T13:02:16.432Z,21.00
2019-05-22T13:04:46.086Z,21.10
2019-05-22T13:07:16.912Z,21.30
2019-05-22T13:09:46.719Z,21.40
2019-05-22T13:12:17.227Z,21.20
2019-05-22T13:14:47.173Z,21.30
2019-05-22T13:17:17.251Z,21.00
2019-05-22T13:19:49.872Z,20.70
2019-05-22T13:22:24.076Z,20.80
2019-05-22T13:24:53.483Z,20.40
2019-05-22T13:27:23.596Z,20.10
2019-05-22T13:29:54.094Z,20.20
2019-05-22T13:32:24.018Z,19.70
2019-05-22T13:34:54.564Z,20.00
2019-05-22T13:37:27.267Z,20.20
2019-05-22T13:39:56.953Z,20.20
2019-05-22T13:42:26.677Z,20.20
2019-05-22T13:44:58.525Z,20.50
2019-05-22T13:47:27.880Z,20.60
2019-05-22T13:49:56.430Z,20.30
2019-05-22T13:52:24.722Z,20.10
2019-05-22T13:54:53.707Z,20.50
2019-05-22T13:57:22.226Z,20.80
2019-05-22T13:59:50.622Z,21.40
2019-05-22T14:02:18.911Z,21.90
2019-05-22T14:04:47.243Z,22.30
2019-05-22T14:07:16.195Z,22.50
2019-05-22T14:09:45.247Z,22.20
2019-05-22T14:12:13.682Z,22.10
2019-05-22T14:14:42.310Z,21.70
2019-05-22T14:17:10.995Z,21.30
2019-05-22T14:19:39.290Z,21.10
2019-05-22T14:22:07.784Z,21.30
2019-05-22T14:24:36.392Z,21.30
2019-05-22T14:27:05.127Z,20.90
2019-05-22T14:29:34.197Z,20.70
2019-05-22T14:32:03.379Z,20.70
2019-05-22T14:34:31.927Z,20.80
2019-05-22T14:37:00.258Z,20.90
2019-05-22T14:39:29.377Z,20.90
2019-05-22T14:41:58.137Z,20.80
2019-05-22T14:44:26.583Z,20.90
2019-05-22T14:46:54.927Z,21.10
2019-05-22T14:49:23.987Z,21.10
2019-05-22T14:51:52.904Z,21.20
2019-05-22T14:54:23.567Z,21.00
2019-05-22T14:56:53.211Z,21.20
2019-05-22T14:59:21.448Z,21.30
2019-05-22T15:01:50.071Z,21.20
2019-05-22T15:04:18.783Z,21.30
2019-05-22T15:06:48.575Z,21.30
2019-05-22T15:09:17.155Z,21.50
2019-05-22T15:11:45.939Z,21.50
2019-05-22T15:14:14.512Z,21.40
2019-05-22T15:16:42.814Z,21.20
2019-05-22T15:19:11.366Z,21.30
2019-05-22T15:21:40.165Z,21.20
2019-05-22T15:24:09.136Z,21.20
2019-05-22T15:26:38.380Z,21.50
2019-05-22T15:29:06.919Z,21.50
2019-05-22T15:31:35.738Z,21.80
2019-05-22T15:34:04.999Z,21.90
2019-05-22T15:36:34.081Z,21.90
2019-05-22T15:39:03.331Z,21.60
2019-05-22T15:41:32.623Z,21.60
2019-05-22T15:44:00.976Z,21.50
2019-05-22T15:46:29.314Z,21.40
2019-05-22T15:48:57.647Z,21.30
2019-05-22T15:51:27.939Z,21.10
2019-05-22T15:53:57.786Z,21.00
2019-05-22T15:56:27.780Z,21.20
2019-05-22T15:58:56.247Z,21.10
2019-05-22T16:01:25.966Z,21.30
2019-05-22T16:03:56.680Z,21.20
2019-05-22T16:06:27.223Z,21.00
2019-05-22T16:08:55.614Z,20.80
2019-05-22T16:11:25.633Z,20.50
2019-05-22T16:13:56.503Z,20.60
2019-05-22T16:16:26.949Z,20.90
2019-05-22T16:18:57.939Z,21.10
2019-05-22T16:21:27.462Z,20.70
2019-05-22T16:23:56.480Z,20.70
2019-05-22T16:26:25.696Z,20.70
2019-05-22T16:28:54.884Z,20.80
2019-05-22T16:31:23.792Z,21.00
2019-05-22T16:33:53.729Z,21.20
2019-05-22T16:36:23.484Z,21.30
2019-05-22T16:38:52.664Z,21.50
2019-05-22T16:41:22.804Z,21.50
2019-05-22T16:43:52.396Z,21.40
2019-05-22T16:46:22.685Z,21.20
2019-05-22T16:48:51.872Z,20.70
2019-05-22T16:51:22.782Z,20.60
2019-05-22T16:53:53.111Z,20.40
2019-05-22T16:56:22.972Z,20.40
2019-05-22T16:58:51.958Z,20.50
2019-05-22T17:01:22.249Z,20.60
2019-05-22T17:03:55.213Z,20.50
2019-05-22T17:06:26.123Z,20.40
2019-05-22T17:08:57.127Z,20.30
2019-05-22T17:11:27.084Z,20.00
2019-05-22T17:13:57.865Z,19.80
2019-05-22T17:16:27.227Z,19.80
2019-05-22T17:18:55.781Z,19.80
2019-05-22T17:21:24.149Z,19.50
2019-05-22T17:23:52.391Z,19.50
2019-05-22T17:26:20.935Z,19.40
2019-05-22T17:28:49.236Z,19.50
2019-05-22T17:31:18.152Z,19.40
2019-05-22T17:33:47.196Z,19.50
2019-05-22T17:36:16.932Z,19.50
2019-05-22T17:38:45.738Z,19.40
2019-05-22T17:41:14.494Z,19.20
2019-05-22T17:43:43.534Z,19.00
2019-05-22T17:46:13.480Z,18.90
2019-05-22T17:48:43.284Z,18.70
2019-05-22T17:51:12.149Z,18.50
2019-05-22T17:53:40.711Z,18.40
2019-05-22T17:56:10.245Z,18.30
2019-05-22T17:58:39.728Z,18.20
2019-05-22T18:01:10.591Z,18.20
2019-05-22T18:03:40.106Z,18.20
2019-05-22T18:06:09.515Z,18.20
2019-05-22T18:08:40.458Z,18.10
2019-05-22T18:11:10.644Z,18.10
2019-05-22T18:13:58.863Z,18.00
2019-05-22T18:16:29.079Z,17.90
2019-05-22T18:18:58.964Z,17.90
2019-05-22T18:21:28.279Z,17.80
2019-05-22T18:23:58.155Z,17.90
2019-05-22T18:26:28.047Z,17.90
2019-05-22T18:28:57.412Z,17.90
2019-05-22T18:31:26.967Z,18.00
2019-05-22T18:33:56.264Z,17.90
2019-05-22T18:36:26.029Z,17.90
2019-05-22T18:38:55.394Z,17.90
2019-05-22T18:41:25.006Z,17.90
2019-05-22T18:43:56.672Z,17.80
2019-05-22T18:46:26.444Z,17.70
2019-05-22T18:48:56.502Z,17.70
2019-05-22T18:51:25.814Z,17.70
2019-05-22T18:53:55.254Z,17.60
2019-05-22T18:56:24.873Z,17.50
2019-05-22T18:58:54.291Z,17.50
2019-05-22T19:01:24.166Z,17.40
2019-05-22T19:03:53.843Z,17.30
2019-05-22T19:06:30.136Z,17.20
2019-05-22T19:08:55.078Z,17.20
2019-05-22T19:11:24.442Z,17.20
2019-05-22T19:13:53.883Z,17.30
2019-05-22T19:16:23.803Z,17.20
2019-05-22T19:18:53.899Z,17.20
2019-05-22T19:21:23.703Z,17.20
2019-05-22T19:23:57.585Z,17.00
2019-05-22T19:26:30.054Z,16.80
2019-05-22T19:29:00.293Z,16.70
2019-05-22T19:31:30.215Z,16.80
2019-05-22T19:33:59.807Z,16.80
2019-05-22T19:36:30.183Z,16.60
2019-05-22T19:39:01.100Z,16.30
2019-05-22T19:41:31.405Z,16.20
2019-05-22T19:44:01.839Z,16.00
2019-05-22T19:46:31.735Z,15.80
2019-05-22T19:49:01.658Z,15.70
2019-05-22T19:51:32.987Z,15.70
2019-05-22T19:54:03.023Z,15.60
2019-05-22T19:56:32.668Z,15.60
2019-05-22T19:59:06.907Z,15.60
2019-05-22T20:01:37.190Z,15.60
2019-05-22T20:04:08.289Z,15.70
2019-05-22T20:06:39.331Z,15.70
2019-05-22T20:09:10.066Z,15.80
2019-05-22T20:11:40.289Z,15.70
2019-05-22T20:14:10.124Z,15.80
2019-05-22T20:16:40.297Z,15.80
2019-05-22T20:19:10.854Z,15.80
2019-05-22T20:21:40.941Z,15.70
2019-05-22T20:24:11.383Z,15.60
2019-05-22T20:26:42.302Z,15.40
2019-05-22T20:29:17.763Z,15.30
2019-05-22T20:31:51.565Z,15.10
2019-05-22T20:34:21.555Z,14.90
2019-05-22T20:36:51.012Z,14.70
2019-05-22T20:39:20.782Z,14.70
2019-05-22T20:41:50.679Z,14.70
2019-05-22T20:44:20.229Z,14.60
2019-05-22T20:46:50.920Z,14.50
2019-05-22T20:49:19.981Z,14.40
2019-05-22T20:51:50.025Z,14.30
2019-05-22T20:54:19.399Z,14.30
2019-05-22T20:56:50.712Z,14.20
2019-05-22T20:59:21.642Z,14.00
2019-05-22T21:01:51.365Z,13.90
2019-05-22T21:04:23.919Z,13.90
2019-05-22T21:07:00.151Z,13.80
2019-05-22T21:09:30.033Z,13.80
2019-05-22T21:12:00.374Z,13.80
2019-05-22T21:14:29.854Z,13.80
2019-05-22T21:17:00.910Z,13.70
2019-05-22T21:19:32.194Z,13.70
2019-05-22T21:22:02.607Z,13.70
2019-05-22T21:24:32.370Z,13.60
2019-05-22T21:27:02.292Z,13.60
2019-05-22T21:29:32.177Z,13.50
2019-05-22T21:32:01.717Z,13.40
2019-05-22T21:34:31.415Z,13.30
2019-05-22T21:37:01.585Z,13.30
2019-05-22T21:39:31.521Z,13.20
2019-05-22T21:42:01.719Z,13.10
2019-05-22T21:44:31.367Z,13.00
2019-05-22T21:47:01.098Z,13.00
2019-05-22T21:49:31.316Z,12.90
2019-05-22T21:52:00.936Z,12.80
2019-05-22T21:54:31.227Z,12.80
2019-05-22T21:57:00.924Z,12.80
2019-05-22T21:59:30.672Z,12.70
2019-05-22T22:02:09.365Z,12.70
2019-05-22T22:04:39.678Z,12.70
2019-05-22T22:07:09.529Z,12.60
2019-05-22T22:09:40.151Z,12.50
2019-05-22T22:12:10.945Z,12.50
2019-05-22T22:14:43.169Z,12.40
2019-05-22T22:17:14.442Z,12.40
2019-05-22T22:19:44.063Z,12.30
2019-05-22T22:22:16.499Z,12.30
2019-05-22T22:24:46.897Z,12.30
2019-05-22T22:27:17.112Z,12.20
2019-05-22T22:29:46.678Z,12.10
2019-05-22T22:32:17.620Z,12.10
2019-05-22T22:34:49.493Z,12.20
2019-05-22T22:37:20.760Z,12.20
2019-05-22T22:39:56.610Z,12.10
2019-05-22T22:42:29.227Z,12.10
2019-05-22T22:45:00.387Z,12.00
2019-05-22T22:47:43.495Z,12.00
2019-05-22T22:50:15.941Z,12.00
2019-05-22T22:52:47.513Z,12.00
2019-05-22T22:55:21.266Z,12.00
2019-05-22T22:57:52.341Z,12.00
2019-05-22T23:00:33.339Z,11.90
2019-05-22T23:03:03.311Z,11.90
2019-05-22T23:05:35.008Z,11.90
2019-05-22T23:08:05.595Z,11.90
2019-05-22T23:10:35.373Z,11.90
2019-05-22T23:13:07.350Z,11.80
2019-05-22T23:15:37.919Z,11.70
2019-05-22T23:18:07.234Z,11.60
2019-05-22T23:20:36.007Z,11.60
2019-05-22T23:23:04.265Z,11.60
2019-05-22T23:25:34.460Z,11.50
2019-05-22T23:28:05.167Z,11.50
2019-05-22T23:30:34.711Z,11.40
2019-05-22T23:33:05.632Z,11.20
2019-05-22T23:35:35.483Z,11.10
2019-05-22T23:38:05.361Z,11.10
2019-05-22T23:40:36.358Z,11.10
2019-05-22T23:43:07.554Z,11.10
2019-05-22T23:45:37.420Z,11.00
2019-05-22T23:48:13.858Z,10.90
2019-05-22T23:50:44.655Z,10.80
2019-05-22T23:53:16.245Z,10.80
2019-05-22T23:55:46.395Z,10.80
2019-05-22T23:58:17.428Z,10.70
